Time;durP1;ratioP1;P1;durP2;ratioP2;P2;SDS_P1;SDS_P2;PMS_P1;PMS_P2;Temp;Humidity;BMP_temperature;BMP_pressure;BME280_temperature;BME280_humidity;BME280_pressure;Samples;Min_cycle;Max_cycle;Signal;HPM_P1;HPM_P2
2023/12/13 00:01:39;;;;;;;142.50;73.95;;;18.60;99.90;;;;;;4987651;28;20065;-69
2023/12/13 00:04:05;;;;;;;131.10;72.05;;;19.60;99.90;;;;;;4985660;28;20066;-68
2023/12/13 00:06:30;;;;;;;137.75;73.65;;;17.80;99.90;;;;;;4986559;28;20496;-69
2023/12/13 00:08:56;;;;;;;134.40;72.88;;;18.40;99.90;;;;;;4986122;28;20088;-68
2023/12/13 00:11:22;;;;;;;132.55;71.85;;;18.10;99.90;;;;;;4987086;28;20041;-69
2023/12/13 00:13:48;;;;;;;133.48;74.95;;;18.20;99.90;;;;;;4986962;28;20042;-69
2023/12/13 00:16:13;;;;;;;135.38;73.60;;;17.80;99.90;;;;;;4997136;28;20046;-69
2023/12/13 00:18:39;;;;;;;129.60;73.55;;;19.40;99.90;;;;;;4982553;28;20513;-68
2023/12/13 00:21:05;;;;;;;136.25;74.22;;;17.90;99.90;;;;;;4982664;28;20050;-69
2023/12/13 00:23:30;;;;;;;97.85;48.35;;;18.90;99.90;;;;;;4990515;28;20164;-68
2023/12/13 00:25:56;;;;;;;126.93;75.38;;;19.50;99.90;;;;;;4985195;28;20046;-68
2023/12/13 00:28:22;;;;;;;131.60;74.18;;;18.50;99.90;;;;;;4987817;28;20050;-69
2023/12/13 00:30:47;;;;;;;128.32;74.45;;;17.90;99.90;;;;;;4987508;28;20057;-69
2023/12/13 00:33:13;;;;;;;113.72;73.97;;;19.50;99.90;;;;;;4987298;28;20070;-68
2023/12/13 00:35:38;;;;;;;123.90;75.68;;;18.40;99.90;;;;;;4998172;28;20313;-69
2023/12/13 00:38:04;;;;;;;137.95;77.68;;;18.30;99.90;;;;;;5002024;28;20046;-69
2023/12/13 00:40:30;;;;;;;137.88;76.55;;;18.40;99.90;;;;;;4985637;28;20054;-68
2023/12/13 00:42:56;;;;;;;123.10;75.85;;;19.60;99.90;;;;;;4985008;28;20050;-68
2023/12/13 00:45:22;;;;;;;132.93;78.03;;;18.50;99.90;;;;;;4985606;28;20497;-69
2023/12/13 00:47:47;;;;;;;129.07;77.20;;;18.40;99.90;;;;;;4985598;28;20141;-69
2023/12/13 00:50:13;;;;;;;131.63;78.78;;;19.30;99.90;;;;;;4976619;28;20118;-69
2023/12/13 00:52:38;;;;;;;120.57;76.22;;;18.90;99.90;;;;;;5001219;28;20046;-68
2023/12/13 00:55:05;;;;;;;118.05;78.18;;;19.70;99.90;;;;;;4985362;28;20121;-69
2023/12/13 00:57:31;;;;;;;118.97;78.90;;;18.50;99.90;;;;;;4984951;28;20034;-69
2023/12/13 00:59:57;;;;;;;140.43;81.90;;;18.40;99.90;;;;;;4985262;28;20042;-69
2023/12/13 01:02:22;;;;;;;126.70;80.40;;;19.50;99.90;;;;;;4985107;28;20137;-69
2023/12/13 01:04:48;;;;;;;133.63;81.53;;;18.70;99.90;;;;;;4991702;28;20526;-69
2023/12/13 01:07:13;;;;;;;135.30;79.10;;;18.00;99.90;;;;;;4995323;28;20044;-68
2023/12/13 01:09:39;;;;;;;124.82;75.40;;;19.50;99.90;;;;;;5015078;28;20496;-68
2023/12/13 01:12:06;;;;;;;138.98;77.82;;;18.70;99.90;;;;;;4986530;28;20048;-69
2023/12/13 01:14:32;;;;;;;143.68;79.53;;;19.00;99.90;;;;;;4984800;28;20061;-68
2023/12/13 01:16:58;;;;;;;133.63;76.10;;;19.40;99.90;;;;;;4985070;28;20068;-69
2023/12/13 01:19:24;;;;;;;141.00;79.43;;;19.30;99.90;;;;;;4980595;28;20046;-68
2023/12/13 01:21:50;;;;;;;159.05;78.43;;;17.80;99.90;;;;;;5001020;28;20101;-69
2023/12/13 01:24:18;;;;;;;149.88;78.82;;;18.70;99.90;;;;;;4986252;28;20517;-68
2023/12/13 01:26:43;;;;;;;157.55;81.43;;;18.30;99.90;;;;;;4984927;28;20055;-68
2023/12/13 01:29:09;;;;;;;166.90;79.68;;;17.60;99.90;;;;;;4984796;28;20061;-68
2023/12/13 01:31:35;;;;;;;140.40;75.78;;;17.90;99.90;;;;;;5000781;28;20043;-69
2023/12/13 01:34:04;;;;;;;148.27;79.90;;;19.40;99.90;;;;;;4985005;28;20058;-68
2023/12/13 01:36:30;;;;;;;148.93;80.15;;;17.80;99.90;;;;;;4999467;28;20439;-68
2023/12/13 01:38:55;;;;;;;140.43;77.43;;;18.00;99.90;;;;;;5013831;28;20551;-67
2023/12/13 01:41:21;;;;;;;111.72;46.80;;;18.70;99.90;;;;;;5003426;28;20069;-68
2023/12/13 01:43:46;;;;;;;104.50;46.88;;;18.90;99.90;;;;;;4990234;28;20045;-68
2023/12/13 01:46:15;;;;;;;111.85;65.93;;;17.80;99.90;;;;;;4990275;28;20517;-68
2023/12/13 01:48:41;;;;;;;111.60;66.35;;;19.00;99.90;;;;;;4988923;28;20134;-68
2023/12/13 01:51:07;;;;;;;100.13;62.92;;;19.70;99.90;;;;;;4989949;28;20758;-68
2023/12/13 01:53:34;;;;;;;101.25;62.05;;;19.20;99.90;;;;;;4989922;28;20046;-67
2023/12/13 01:56:01;;;;;;;102.97;61.25;;;19.50;99.90;;;;;;4989728;28;20170;-68
2023/12/13 01:58:27;;;;;;;97.07;59.00;;;18.90;99.90;;;;;;4990059;28;20232;-68
2023/12/13 02:00:55;;;;;;;108.82;60.40;;;18.10;99.90;;;;;;4989428;28;20145;-67
2023/12/13 02:03:22;;;;;;;99.57;60.92;;;17.90;99.90;;;;;;5004293;28;20038;-68
2023/12/13 02:05:50;;;;;;;106.53;60.50;;;18.20;99.90;;;;;;4989756;28;20050;-68
2023/12/13 02:08:16;;;;;;;103.50;61.80;;;18.40;99.90;;;;;;4990276;28;20062;-68
2023/12/13 02:10:42;;;;;;;116.20;64.65;;;18.90;99.90;;;;;;5007452;28;20044;-68
2023/12/13 02:13:07;;;;;;;108.97;60.67;;;18.40;99.90;;;;;;5005390;28;20042;-67
2023/12/13 02:15:35;;;;;;;96.72;42.50;;;18.80;99.90;;;;;;4988404;28;20054;-68
2023/12/13 02:18:01;;;;;;;103.88;60.33;;;17.50;99.90;;;;;;4989488;28;20100;-68
2023/12/13 02:20:27;;;;;;;104.80;58.88;;;17.60;99.90;;;;;;4998510;28;20116;-68
2023/12/13 02:22:52;;;;;;;98.68;59.03;;;18.90;99.90;;;;;;4997019;28;20164;-68
2023/12/13 02:25:40;;;;;;;101.80;59.47;;;19.50;99.90;;;;;;4989818;28;20053;-68
2023/12/13 02:28:06;;;;;;;102.57;57.45;;;19.10;99.90;;;;;;4987558;28;20046;-67
2023/12/13 02:30:31;;;;;;;92.28;56.78;;;17.50;99.90;;;;;;4988028;28;20039;-68
2023/12/13 02:32:57;;;;;;;94.30;55.42;;;18.00;99.90;;;;;;4988733;28;20050;-68
2023/12/13 02:35:23;;;;;;;85.65;55.22;;;18.60;99.90;;;;;;4987344;28;20042;-68
2023/12/13 02:37:49;;;;;;;90.28;55.58;;;20.10;99.90;;;;;;4989244;28;20050;-68
2023/12/13 02:40:19;;;;;;;89.65;56.17;;;18.10;99.90;;;;;;4987547;28;20257;-68
2023/12/13 02:42:45;;;;;;;79.68;53.85;;;17.60;99.90;;;;;;4987791;28;20329;-68
2023/12/13 02:45:12;;;;;;;83.97;54.92;;;17.50;99.90;;;;;;4989240;28;20050;-65
2023/12/13 02:47:41;;;;;;;80.30;52.05;;;19.00;99.90;;;;;;4989078;28;20073;-63
2023/12/13 02:50:11;;;;;;;73.40;35.83;;;18.00;99.90;;;;;;4990021;28;20068;-64
2023/12/13 02:52:37;;;;;;;70.60;47.40;;;18.80;99.90;;;;;;5000361;28;20832;-63
2023/12/13 02:55:04;;;;;;;60.47;35.33;;;19.20;99.90;;;;;;4987730;28;20070;-64
2023/12/13 02:57:29;;;;;;;65.22;48.72;;;18.60;99.90;;;;;;4988947;28;20086;-63
2023/12/13 02:59:55;;;;;;;75.57;51.03;;;19.50;99.90;;;;;;4989352;28;20050;-65
2023/12/13 03:02:20;;;;;;;73.43;51.03;;;18.80;99.90;;;;;;4988628;28;20058;-64
2023/12/13 03:04:46;;;;;;;77.15;50.40;;;17.90;99.90;;;;;;4989225;28;20054;-64
2023/12/13 03:07:12;;;;;;;72.28;49.83;;;19.10;99.90;;;;;;4987146;28;20489;-64
2023/12/13 03:09:37;;;;;;;76.93;52.42;;;18.00;99.90;;;;;;4983698;28;20157;-65
2023/12/13 03:12:03;;;;;;;74.68;50.83;;;17.40;99.90;;;;;;4974647;28;20572;-64
2023/12/13 03:14:29;;;;;;;80.10;53.03;;;17.50;99.90;;;;;;4988076;28;20504;-64
2023/12/13 03:16:54;;;;;;;63.88;38.25;;;19.30;99.90;;;;;;4986882;28;20050;-64
2023/12/13 03:19:20;;;;;;;81.07;52.78;;;18.50;99.90;;;;;;4988416;28;20078;-63
2023/12/13 03:21:45;;;;;;;75.32;52.40;;;18.60;99.90;;;;;;4988005;28;20034;-63
2023/12/13 03:24:11;;;;;;;76.38;51.15;;;18.70;99.90;;;;;;4988351;28;20038;-64
2023/12/13 03:26:36;;;;;;;85.20;52.17;;;18.70;99.90;;;;;;4988684;28;20071;-64
2023/12/13 03:29:02;;;;;;;70.68;38.60;;;20.00;99.90;;;;;;4987270;28;20050;-63
2023/12/13 03:31:28;;;;;;;71.07;51.63;;;18.80;99.90;;;;;;4988492;28;20547;-64
2023/12/13 03:33:55;;;;;;;82.30;51.75;;;17.50;99.90;;;;;;4988119;28;20062;-64
2023/12/13 03:36:20;;;;;;;75.82;53.95;;;19.00;99.90;;;;;;5002855;28;20060;-64
2023/12/13 03:38:46;;;;;;;77.28;54.03;;;18.80;99.90;;;;;;4988118;28;20042;-63
2023/12/13 03:41:12;;;;;;;75.63;53.53;;;18.40;99.90;;;;;;4989013;28;20057;-63
2023/12/13 03:43:37;;;;;;;76.65;55.00;;;18.70;99.90;;;;;;4987871;28;20046;-64
2023/12/13 03:46:03;;;;;;;79.28;54.75;;;18.80;99.90;;;;;;4988076;28;20050;-64
2023/12/13 03:48:28;;;;;;;76.20;52.92;;;18.40;99.90;;;;;;4993220;28;20038;-64
2023/12/13 03:50:54;;;;;;;80.90;55.78;;;17.70;99.90;;;;;;4996586;28;20038;-64
2023/12/13 03:53:19;;;;;;;78.65;53.35;;;19.00;99.90;;;;;;4987145;28;20136;-63
2023/12/13 03:55:45;;;;;;;78.05;52.67;;;18.60;99.90;;;;;;4987971;28;20136;-68
2023/12/13 03:58:10;;;;;;;77.63;53.33;;;17.40;99.90;;;;;;4986131;28;20061;-68
2023/12/13 04:00:36;;;;;;;80.03;53.88;;;18.20;99.90;;;;;;4986701;28;20046;-69
2023/12/13 04:03:02;;;;;;;83.85;53.83;;;17.70;99.90;;;;;;4986505;28;20332;-69
2023/12/13 04:05:28;;;;;;;62.72;39.33;;;17.90;99.90;;;;;;5002770;28;20875;-69
2023/12/13 04:07:53;;;;;;;70.28;38.92;;;19.00;99.90;;;;;;4987211;28;20518;-68
2023/12/13 04:10:19;;;;;;;83.32;54.22;;;20.00;99.90;;;;;;4985934;28;20046;-68
2023/12/13 04:12:45;;;;;;;79.13;54.40;;;18.10;99.90;;;;;;4985972;28;20303;-69
2023/12/13 04:15:11;;;;;;;81.97;55.85;;;18.40;99.90;;;;;;4986493;28;20049;-68
2023/12/13 04:17:37;;;;;;;83.30;41.53;;;17.60;99.90;;;;;;4984682;28;20057;-68
2023/12/13 04:20:03;;;;;;;83.80;42.97;;;18.20;99.90;;;;;;4986261;28;20079;-69
2023/12/13 04:22:29;;;;;;;85.30;56.92;;;18.00;99.90;;;;;;5002359;28;20054;-69
2023/12/13 04:24:54;;;;;;;97.75;58.38;;;18.80;99.90;;;;;;4986237;28;20112;-69
2023/12/13 04:27:20;;;;;;;93.82;59.92;;;18.20;99.90;;;;;;4987039;28;20081;-69
2023/12/13 04:29:45;;;;;;;100.65;62.80;;;19.10;99.90;;;;;;4985765;28;20046;-68
2023/12/13 04:32:11;;;;;;;102.07;63.28;;;19.10;99.90;;;;;;4985983;28;20042;-68
2023/12/13 04:34:37;;;;;;;104.72;63.13;;;19.00;99.90;;;;;;4985810;28;20575;-68
2023/12/13 04:37:02;;;;;;;84.25;43.08;;;19.30;99.90;;;;;;4985536;28;20129;-68
2023/12/13 04:39:28;;;;;;;104.32;64.22;;;19.10;99.90;;;;;;4988498;28;20064;-69
2023/12/13 04:41:53;;;;;;;103.03;65.32;;;18.20;99.90;;;;;;4979968;28;20050;-68
2023/12/13 04:44:19;;;;;;;104.25;67.15;;;17.80;99.90;;;;;;4983777;28;20047;-68
2023/12/13 04:46:44;;;;;;;115.25;70.05;;;17.60;99.90;;;;;;4986573;28;20038;-68
2023/12/13 04:49:10;;;;;;;113.95;69.65;;;17.50;99.90;;;;;;4986748;28;20084;-69
2023/12/13 04:51:36;;;;;;;120.00;72.78;;;19.20;99.90;;;;;;5001488;28;20162;-69
2023/12/13 04:54:01;;;;;;;122.72;71.45;;;18.80;99.90;;;;;;5001609;28;20039;-69
2023/12/13 04:56:27;;;;;;;118.22;70.25;;;18.30;99.90;;;;;;4984801;28;20057;-68
2023/12/13 04:58:53;;;;;;;109.13;69.88;;;18.30;99.90;;;;;;4984690;28;20077;-68
2023/12/13 05:01:19;;;;;;;122.80;69.53;;;19.00;99.90;;;;;;4986487;28;20058;-68
2023/12/13 05:03:44;;;;;;;117.25;71.82;;;17.60;99.90;;;;;;5001616;28;20536;-68
2023/12/13 05:06:10;;;;;;;123.80;68.95;;;18.70;99.90;;;;;;4985928;28;20054;-65
2023/12/13 05:08:35;;;;;;;119.93;69.68;;;17.60;99.90;;;;;;4986160;28;20038;-64
2023/12/13 05:11:01;;;;;;;117.38;69.60;;;17.40;99.90;;;;;;4985145;28;20078;-64
2023/12/13 05:13:27;;;;;;;130.57;73.50;;;19.40;99.90;;;;;;4986391;28;20046;-64
2023/12/13 05:15:52;;;;;;;129.95;73.30;;;18.30;99.90;;;;;;4986492;28;20038;-65
2023/12/13 05:18:18;;;;;;;136.07;75.80;;;17.80;99.90;;;;;;4986763;28;20070;-64
2023/12/13 05:20:45;;;;;;;127.97;74.57;;;19.70;99.90;;;;;;4982043;28;20035;-64
2023/12/13 05:23:11;;;;;;;124.05;70.78;;;18.70;99.90;;;;;;4985300;28;20043;-64
2023/12/13 05:25:38;;;;;;;129.88;73.25;;;18.20;99.90;;;;;;4986121;28;20096;-64
2023/12/13 05:28:04;;;;;;;128.55;73.13;;;17.70;99.90;;;;;;4984042;28;20057;-64
2023/12/13 05:30:29;;;;;;;127.95;74.30;;;17.30;99.90;;;;;;4986176;28;20584;-64
2023/12/13 05:32:55;;;;;;;137.13;74.28;;;19.30;99.90;;;;;;4986236;28;20575;-64
2023/12/13 05:35:21;;;;;;;127.35;75.22;;;17.50;99.90;;;;;;4984849;28;20078;-64
2023/12/13 05:37:47;;;;;;;139.90;77.78;;;18.30;99.90;;;;;;4985644;28;20085;-64
2023/12/13 05:40:13;;;;;;;121.68;73.60;;;18.30;99.90;;;;;;4986386;28;20085;-64
2023/12/13 05:42:39;;;;;;;127.57;50.08;;;17.50;99.90;;;;;;4984911;28;20042;-63
2023/12/13 05:45:05;;;;;;;134.10;77.00;;;18.20;99.90;;;;;;4985109;28;20512;-64
2023/12/13 05:47:32;;;;;;;148.80;76.90;;;17.70;99.90;;;;;;4985946;28;20043;-63
2023/12/13 05:49:57;;;;;;;148.77;76.32;;;18.00;99.90;;;;;;4986893;28;20077;-64
2023/12/13 05:52:23;;;;;;;147.50;76.75;;;18.20;99.90;;;;;;4986811;28;20038;-64
2023/12/13 05:54:49;;;;;;;142.20;76.28;;;19.20;99.90;;;;;;4985166;28;20038;-63
2023/12/13 05:57:15;;;;;;;146.02;77.75;;;18.40;99.90;;;;;;4988933;28;20046;-64
2023/12/13 05:59:40;;;;;;;141.55;76.88;;;17.70;99.90;;;;;;5005893;28;20045;-64
2023/12/13 06:02:06;;;;;;;145.32;77.07;;;19.10;99.90;;;;;;5006795;28;20097;-64
2023/12/13 06:04:31;;;;;;;143.50;79.22;;;19.30;99.90;;;;;;4999790;28;20081;-64
2023/12/13 06:06:57;;;;;;;162.80;80.45;;;18.80;99.90;;;;;;4984847;28;20042;-63
2023/12/13 06:09:23;;;;;;;164.90;80.30;;;19.30;99.90;;;;;;4984146;28;20421;-64
2023/12/13 06:11:49;;;;;;;124.57;53.03;;;17.40;99.90;;;;;;4985857;28;20034;-63
2023/12/13 06:14:14;;;;;;;129.30;50.58;;;17.40;99.90;;;;;;4983061;28;20467;-65
2023/12/13 06:16:40;;;;;;;128.50;49.55;;;18.60;99.90;;;;;;4982515;28;20136;-63
2023/12/13 06:19:06;;;;;;;144.15;76.70;;;17.60;99.90;;;;;;4985603;28;20500;-66
2023/12/13 06:21:33;;;;;;;157.35;78.63;;;18.20;99.90;;;;;;4981555;28;20500;-63
2023/12/13 06:24:00;;;;;;;122.07;52.80;;;19.10;99.90;;;;;;4983627;28;20382;-65
2023/12/13 06:26:26;;;;;;;144.02;79.72;;;17.60;99.90;;;;;;4988324;28;20508;-64
2023/12/13 06:28:52;;;;;;;139.60;78.50;;;17.40;99.90;;;;;;4987671;28;20149;-64
2023/12/13 06:31:18;;;;;;;138.93;81.78;;;17.60;99.90;;;;;;4987853;28;20073;-64
2023/12/13 06:33:43;;;;;;;152.57;79.80;;;17.60;99.90;;;;;;5021527;28;20054;-64
2023/12/13 06:36:09;;;;;;;162.40;83.13;;;17.90;99.90;;;;;;4986741;28;20057;-65
2023/12/13 06:38:35;;;;;;;153.80;80.90;;;17.70;99.90;;;;;;4977485;28;20084;-63
2023/12/13 06:41:00;;;;;;;136.60;53.25;;;19.50;99.90;;;;;;4976352;28;20050;-64
2023/12/13 06:43:26;;;;;;;151.57;79.28;;;17.50;99.90;;;;;;4982596;28;20043;-64
2023/12/13 06:45:51;;;;;;;158.75;78.35;;;18.80;99.90;;;;;;4978142;28;20042;-64
2023/12/13 06:48:17;;;;;;;151.52;80.78;;;17.90;99.90;;;;;;4976689;28;20084;-64
2023/12/13 06:50:42;;;;;;;158.25;79.07;;;18.20;99.90;;;;;;4983107;28;20066;-65
2023/12/13 06:53:08;;;;;;;153.25;79.20;;;17.50;99.90;;;;;;4981227;28;20076;-65
2023/12/13 06:55:33;;;;;;;141.68;76.40;;;17.70;99.90;;;;;;4995810;28;20047;-64
2023/12/13 06:58:00;;;;;;;147.45;76.88;;;18.60;99.90;;;;;;4992868;28;20462;-63
2023/12/13 07:00:27;;;;;;;130.93;76.65;;;18.60;99.90;;;;;;4985770;28;20058;-64
2023/12/13 07:02:53;;;;;;;120.15;50.28;;;18.30;99.90;;;;;;4981372;28;20050;-64
2023/12/13 07:05:19;;;;;;;141.50;75.07;;;17.60;99.90;;;;;;4981873;28;20070;-64
2023/12/13 07:07:46;;;;;;;140.90;74.72;;;17.60;99.90;;;;;;4981843;28;20077;-63
2023/12/13 07:10:12;;;;;;;128.93;49.92;;;18.10;99.90;;;;;;4989450;28;20125;-64
2023/12/13 07:12:38;;;;;;;149.48;75.57;;;17.60;99.90;;;;;;4985979;28;20117;-66
2023/12/13 07:15:06;;;;;;;137.57;51.40;;;19.10;99.90;;;;;;4976876;28;20046;-63
2023/12/13 07:17:31;;;;;;;132.30;51.35;;;17.90;99.90;;;;;;4981995;28;20116;-64
2023/12/13 07:19:57;;;;;;;145.98;72.88;;;18.30;99.90;;;;;;4983484;28;20043;-63
2023/12/13 07:22:23;;;;;;;142.68;74.57;;;19.00;99.90;;;;;;4983875;28;20045;-65
2023/12/13 07:24:48;;;;;;;144.25;75.78;;;18.80;99.90;;;;;;4983818;28;20030;-63
2023/12/13 07:27:14;;;;;;;137.93;74.32;;;18.50;99.90;;;;;;4986632;28;20684;-64
2023/12/13 07:29:43;;;;;;;148.57;76.53;;;17.70;99.90;;;;;;4983766;28;20038;-63
2023/12/13 07:32:09;;;;;;;143.65;75.78;;;19.30;99.90;;;;;;4984732;28;20031;-64
2023/12/13 07:34:36;;;;;;;143.60;76.15;;;19.60;99.90;;;;;;4982129;28;20050;-64
2023/12/13 07:37:02;;;;;;;154.50;77.57;;;18.70;99.90;;;;;;4985546;28;20111;-63
2023/12/13 07:39:30;;;;;;;162.27;76.97;;;17.80;99.90;;;;;;4986531;28;20117;-65
2023/12/13 07:41:57;;;;;;;143.80;75.90;;;18.60;99.90;;;;;;4985848;28;20046;-63
2023/12/13 07:44:23;;;;;;;139.52;74.10;;;18.80;99.90;;;;;;4979877;28;20177;-68
2023/12/13 07:46:48;;;;;;;144.75;74.80;;;18.90;99.90;;;;;;4994455;28;20050;-65
2023/12/13 07:49:14;;;;;;;118.60;69.43;;;19.80;99.90;;;;;;4981591;28;20050;-64
2023/12/13 07:51:39;;;;;;;131.80;75.63;;;19.30;99.90;;;;;;4982641;28;20092;-63
2023/12/13 07:54:05;;;;;;;145.38;76.88;;;18.60;99.90;;;;;;4983471;28;20058;-64
2023/12/13 07:56:31;;;;;;;133.20;74.03;;;18.20;99.90;;;;;;4984455;28;20042;-64
2023/12/13 07:58:56;;;;;;;128.75;75.55;;;18.50;99.90;;;;;;4984907;28;20072;-64
2023/12/13 08:01:22;;;;;;;131.35;74.80;;;19.70;99.90;;;;;;4983904;28;20104;-64
2023/12/13 08:03:48;;;;;;;126.43;72.57;;;18.30;99.90;;;;;;4987165;28;20069;-65
2023/12/13 08:06:15;;;;;;;117.65;71.78;;;19.50;99.90;;;;;;4984970;28;20050;-65
2023/12/13 08:08:41;;;;;;;142.63;75.85;;;19.30;99.90;;;;;;4984306;28;20504;-65
2023/12/13 08:11:07;;;;;;;147.40;74.38;;;19.30;99.90;;;;;;4984237;28;20077;-64
2023/12/13 08:13:33;;;;;;;151.95;75.85;;;19.80;99.90;;;;;;4985496;28;20079;-64
2023/12/13 08:15:59;;;;;;;138.98;72.82;;;19.00;99.90;;;;;;4985099;28;20042;-64
2023/12/13 08:18:25;;;;;;;149.38;76.78;;;18.50;99.90;;;;;;4986726;28;20042;-65
2023/12/13 08:20:50;;;;;;;145.98;75.10;;;19.60;99.90;;;;;;4984625;28;20049;-64
2023/12/13 08:23:16;;;;;;;138.00;72.78;;;17.90;99.90;;;;;;4985748;28;20069;-64
2023/12/13 08:25:42;;;;;;;123.43;72.10;;;19.30;99.90;;;;;;4984718;28;20077;-65
2023/12/13 08:28:08;;;;;;;117.88;71.75;;;19.40;99.90;;;;;;4983048;28;20049;-64
2023/12/13 08:30:34;;;;;;;120.70;73.53;;;17.60;99.90;;;;;;4999419;28;20038;-65
2023/12/13 08:33:00;;;;;;;108.10;51.22;;;18.60;99.90;;;;;;4982185;28;20044;-64
2023/12/13 08:35:26;;;;;;;123.43;68.65;;;19.10;99.90;;;;;;4983603;28;20077;-66
2023/12/13 08:37:52;;;;;;;127.13;72.63;;;17.90;99.90;;;;;;4983328;28;20038;-66
2023/12/13 08:40:18;;;;;;;143.23;72.70;;;19.20;99.90;;;;;;4996597;28;20046;-66
2023/12/13 08:42:44;;;;;;;124.70;69.93;;;19.50;99.90;;;;;;4982527;28;20034;-66
2023/12/13 08:45:12;;;;;;;117.70;70.40;;;19.90;99.90;;;;;;4979335;28;20325;-64
2023/12/13 08:47:38;;;;;;;133.57;70.68;;;18.70;99.90;;;;;;4980192;28;20045;-66
2023/12/13 08:50:04;;;;;;;105.78;49.20;;;18.20;99.90;;;;;;4999523;28;20052;-65
2023/12/13 08:52:30;;;;;;;113.85;48.42;;;19.10;99.90;;;;;;4984032;28;20404;-65
2023/12/13 08:54:56;;;;;;;124.72;69.40;;;17.70;99.90;;;;;;4983141;28;20042;-65
2023/12/13 08:57:21;;;;;;;137.30;71.45;;;19.20;99.90;;;;;;4984298;28;20038;-65
2023/12/13 08:59:47;;;;;;;125.82;71.28;;;19.20;99.90;;;;;;4981366;28;20078;-66
2023/12/13 09:02:12;;;;;;;115.95;70.80;;;19.90;99.90;;;;;;4982264;28;20054;-65
2023/12/13 09:04:38;;;;;;;121.72;70.43;;;19.00;99.90;;;;;;4983107;28;20120;-65
2023/12/13 09:07:04;;;;;;;113.93;69.78;;;18.50;99.90;;;;;;4997455;28;20671;-66
2023/12/13 09:09:31;;;;;;;118.93;69.07;;;17.90;99.90;;;;;;4981527;28;20051;-67
2023/12/13 09:11:58;;;;;;;126.85;71.28;;;19.00;99.90;;;;;;4979397;28;20360;-65
2023/12/13 09:14:23;;;;;;;186.13;76.68;;;19.60;99.90;;;;;;4984334;28;20046;-66
2023/12/13 09:16:49;;;;;;;134.30;72.97;;;18.20;99.90;;;;;;4984730;28;20038;-65
2023/12/13 09:19:15;;;;;;;134.77;74.30;;;18.60;99.90;;;;;;5000915;28;20445;-66
2023/12/13 09:21:40;;;;;;;132.85;74.50;;;19.50;99.90;;;;;;4983910;28;20034;-65
2023/12/13 09:24:07;;;;;;;125.30;72.55;;;20.10;99.90;;;;;;4983810;28;20066;-65
2023/12/13 09:26:35;;;;;;;129.60;74.90;;;18.60;99.90;;;;;;4998282;28;20050;-65
2023/12/13 09:29:01;;;;;;;132.15;75.90;;;19.60;99.90;;;;;;4983936;28;20108;-66
2023/12/13 09:31:27;;;;;;;138.10;76.88;;;19.20;99.90;;;;;;4998541;28;20041;-66
2023/12/13 09:33:53;;;;;;;130.35;76.25;;;18.40;99.90;;;;;;4984409;28;20483;-67
2023/12/13 09:36:19;;;;;;;120.15;74.90;;;19.40;99.90;;;;;;4981177;28;20413;-66
2023/12/13 09:38:45;;;;;;;126.78;79.32;;;18.40;99.90;;;;;;4980855;28;20502;-66
2023/12/13 09:41:17;;;;;;;124.97;75.47;;;18.00;99.90;;;;;;4984240;28;20072;-65
2023/12/13 09:43:43;;;;;;;126.05;76.53;;;20.20;99.90;;;;;;4997363;28;20049;-66
2023/12/13 09:46:13;;;;;;;125.03;76.00;;;18.00;99.90;;;;;;4981321;28;20054;-65
2023/12/13 09:48:40;;;;;;;134.77;76.63;;;18.10;99.90;;;;;;4985176;28;20104;-65
2023/12/13 09:51:06;;;;;;;136.20;76.70;;;19.30;99.90;;;;;;4984235;28;20050;-65
2023/12/13 09:53:34;;;;;;;132.50;76.35;;;18.20;99.90;;;;;;4980698;28;20047;-66
2023/12/13 09:56:01;;;;;;;127.50;74.45;;;20.30;99.90;;;;;;4983088;28;20457;-66
2023/12/13 09:58:26;;;;;;;125.47;72.00;;;18.00;99.90;;;;;;4983827;28;20053;-66
2023/12/13 10:00:52;;;;;;;128.52;74.43;;;18.00;99.90;;;;;;4987321;28;20070;-65
2023/12/13 10:03:18;;;;;;;131.98;74.53;;;18.60;99.90;;;;;;4986481;28;20412;-66
2023/12/13 10:05:48;;;;;;;124.70;73.30;;;18.30;99.90;;;;;;4986695;28;20089;-65
2023/12/13 10:08:14;;;;;;;126.40;75.28;;;18.80;99.90;;;;;;5016501;28;20046;-65
2023/12/13 10:10:42;;;;;;;126.30;77.53;;;20.20;99.90;;;;;;4985767;28;20386;-66
2023/12/13 10:13:09;;;;;;;129.23;76.70;;;17.90;99.90;;;;;;4986841;28;20061;-67
2023/12/13 10:15:36;;;;;;;132.02;75.85;;;19.50;99.90;;;;;;4988515;28;20518;-66
2023/12/13 10:18:02;;;;;;;131.63;76.47;;;18.00;99.90;;;;;;4986354;28;20576;-67
2023/12/13 10:20:30;;;;;;;126.45;76.53;;;18.00;99.90;;;;;;4988014;28;20034;-67
2023/12/13 10:22:56;;;;;;;127.85;74.47;;;20.40;99.90;;;;;;5002105;28;20073;-66
2023/12/13 10:25:23;;;;;;;132.45;77.43;;;19.90;99.90;;;;;;4989483;28;20046;-66
2023/12/13 10:27:53;;;;;;;127.03;76.90;;;19.50;99.90;;;;;;4999251;28;20065;-66
2023/12/13 10:30:19;;;;;;;133.50;79.13;;;20.00;99.90;;;;;;5003194;28;20207;-66
2023/12/13 10:32:45;;;;;;;123.95;76.13;;;19.30;99.90;;;;;;4991331;28;20753;-66
2023/12/13 10:35:10;;;;;;;150.48;80.78;;;18.90;99.90;;;;;;4984468;28;20046;-66
2023/12/13 10:37:36;;;;;;;143.00;81.88;;;20.00;99.90;;;;;;4988239;28;20386;-66
2023/12/13 10:40:04;;;;;;;131.77;79.50;;;19.40;99.90;;;;;;5002811;28;20416;-66
2023/12/13 10:42:30;;;;;;;137.85;81.72;;;19.00;99.90;;;;;;4987319;28;20080;-66
2023/12/13 10:44:56;;;;;;;137.73;80.32;;;18.10;99.90;;;;;;4988341;28;20524;-66
2023/12/13 10:47:23;;;;;;;137.13;81.68;;;18.00;99.90;;;;;;4986302;28;20046;-67
2023/12/13 10:49:54;;;;;;;142.43;81.45;;;18.20;99.90;;;;;;4988446;28;20081;-67
2023/12/13 10:52:21;;;;;;;141.02;83.60;;;18.50;99.90;;;;;;4988506;28;20133;-66
2023/12/13 10:54:51;;;;;;;144.82;85.30;;;19.20;99.90;;;;;;4985186;28;20386;-68
2023/12/13 10:57:17;;;;;;;136.38;82.13;;;18.70;99.90;;;;;;4990976;28;20493;-68
2023/12/13 10:59:44;;;;;;;135.98;82.45;;;19.60;99.90;;;;;;4985870;28;20050;-68
2023/12/13 11:02:15;;;;;;;123.45;80.25;;;19.60;99.90;;;;;;4985351;28;20058;-68
2023/12/13 11:04:43;;;;;;;127.55;80.43;;;20.20;99.90;;;;;;4988537;28;20420;-69
2023/12/13 11:07:09;;;;;;;132.85;80.70;;;18.80;99.90;;;;;;4985884;28;20046;-68
2023/12/13 11:09:35;;;;;;;119.22;79.07;;;19.20;99.90;;;;;;4985870;28;20050;-68
2023/12/13 11:12:11;;;;;;;128.93;81.18;;;18.20;99.90;;;;;;4985372;28;20421;-68
2023/12/13 11:14:40;;;;;;;122.18;80.28;;;18.30;99.90;;;;;;4985724;28;20408;-68
2023/12/13 11:17:06;;;;;;;128.82;79.43;;;20.40;99.90;;;;;;4982021;28;20129;-68
2023/12/13 11:19:32;;;;;;;131.40;80.22;;;21.40;99.90;;;;;;4987171;28;20048;-68
2023/12/13 11:21:58;;;;;;;121.43;80.97;;;20.10;99.90;;;;;;4986105;28;20504;-68
2023/12/13 11:24:26;;;;;;;124.75;79.70;;;18.90;99.90;;;;;;5002877;28;20058;-68
2023/12/13 11:26:53;;;;;;;120.40;79.43;;;20.80;99.90;;;;;;5020084;28;20038;-69
2023/12/13 11:29:25;;;;;;;126.07;82.18;;;21.20;99.90;;;;;;4988632;28;20042;-68
2023/12/13 11:31:59;;;;;;;130.45;81.55;;;19.90;99.90;;;;;;5001591;28;20531;-68
2023/12/13 11:34:32;;;;;;;127.93;83.80;;;20.80;99.90;;;;;;4983021;28;20136;-69
2023/12/13 11:37:00;;;;;;;130.75;84.15;;;20.50;99.90;;;;;;4982923;28;20053;-68
2023/12/13 11:39:27;;;;;;;120.93;81.00;;;19.50;99.90;;;;;;4984011;28;20058;-68
2023/12/13 11:41:53;;;;;;;127.50;82.45;;;21.30;99.90;;;;;;5002270;28;20665;-69
2023/12/13 11:44:18;;;;;;;132.85;85.07;;;20.20;99.90;;;;;;4985334;28;20050;-68
2023/12/13 11:46:55;;;;;;;126.00;83.15;;;19.60;99.90;;;;;;4985908;28;20049;-68
2023/12/13 11:49:21;;;;;;;128.60;84.78;;;19.90;99.90;;;;;;4985781;28;20046;-68
2023/12/13 11:51:47;;;;;;;128.00;84.22;;;21.60;99.90;;;;;;4981905;28;20132;-68
2023/12/13 11:54:13;;;;;;;123.57;81.43;;;21.10;99.90;;;;;;4980381;28;20141;-69
2023/12/13 11:56:43;;;;;;;118.07;80.38;;;18.50;99.90;;;;;;5000665;28;20038;-68
2023/12/13 11:59:08;;;;;;;117.82;81.78;;;19.50;99.90;;;;;;4986395;28;20092;-68
2023/12/13 12:01:34;;;;;;;112.28;79.68;;;18.10;99.90;;;;;;4985754;28;20280;-69
2023/12/13 12:04:00;;;;;;;115.82;79.40;;;21.50;99.90;;;;;;4986994;28;20046;-68
2023/12/13 12:06:25;;;;;;;130.27;80.47;;;21.20;99.90;;;;;;4985000;28;20053;-67
2023/12/13 12:08:51;;;;;;;119.03;80.03;;;19.80;99.90;;;;;;4981317;28;20401;-67
2023/12/13 12:11:19;;;;;;;129.95;79.43;;;21.30;99.90;;;;;;4980601;28;20073;-67
2023/12/13 12:13:45;;;;;;;131.30;81.30;;;22.70;99.90;;;;;;4984129;28;20046;-66